createdAt,value
2018-07-25T00:00:35.376Z,61.30
2018-07-25T00:03:05.371Z,61.63
2018-07-25T00:05:35.219Z,61.01
2018-07-25T00:08:05.139Z,61.53
2018-07-25T00:10:40.073Z,61.33
2018-07-25T00:13:09.907Z,60.97
2018-07-25T00:15:39.755Z,61.57
2018-07-25T00:18:09.604Z,61.50
2018-07-25T00:20:39.408Z,61.16
2018-07-25T00:23:09.207Z,60.50
2018-07-25T00:25:39.120Z,61.10
2018-07-25T00:28:09.200Z,60.57
2018-07-25T00:30:39.004Z,60.48
2018-07-25T00:33:08.839Z,60.72
2018-07-25T00:35:38.636Z,60.76
2018-07-25T00:38:08.531Z,61.20
2018-07-25T00:40:38.483Z,60.97
2018-07-25T00:43:08.299Z,61.00
2018-07-25T00:45:38.064Z,61.28
2018-07-25T00:48:08.212Z,61.28
2018-07-25T00:50:37.979Z,61.34
2018-07-25T00:53:07.795Z,61.52
2018-07-25T00:55:37.589Z,62.06
2018-07-25T00:58:07.399Z,61.90
2018-07-25T01:00:37.341Z,62.61
2018-07-25T01:03:07.195Z,63.12
2018-07-25T01:05:37.012Z,63.07
2018-07-25T01:08:06.944Z,63.28
2018-07-25T01:10:40.972Z,62.83
2018-07-25T01:13:11.523Z,62.78
2018-07-25T01:15:41.568Z,63.00
2018-07-25T01:18:11.387Z,63.80
2018-07-25T01:20:41.235Z,63.91
2018-07-25T01:23:11.034Z,63.36
2018-07-25T01:25:40.798Z,63.79
2018-07-25T01:28:10.624Z,64.08
2018-07-25T01:30:40.376Z,64.14
2018-07-25T01:33:10.180Z,63.87
2018-07-25T01:35:39.989Z,63.60
2018-07-25T01:38:09.836Z,64.07
2018-07-25T01:40:39.698Z,64.13
2018-07-25T01:43:09.475Z,63.81
2018-07-25T01:45:39.328Z,64.12
2018-07-25T01:48:09.186Z,64.54
2018-07-25T01:50:39.071Z,64.11
2018-07-25T01:53:08.987Z,64.24
2018-07-25T01:55:38.775Z,64.28
2018-07-25T01:58:08.886Z,64.45
2018-07-25T02:00:38.770Z,63.98
2018-07-25T02:03:08.715Z,63.71
2018-07-25T02:05:38.462Z,64.42
2018-07-25T02:08:08.303Z,64.12
2018-07-25T02:10:43.320Z,64.14
2018-07-25T02:13:14.550Z,63.89
2018-07-25T02:15:44.579Z,64.16
2018-07-25T02:18:14.335Z,63.56
2018-07-25T02:20:44.156Z,63.56
2018-07-25T02:23:13.899Z,63.52
2018-07-25T02:25:43.715Z,63.84
2018-07-25T02:28:13.548Z,63.61
2018-07-25T02:30:43.375Z,64.10
2018-07-25T02:33:13.258Z,63.20
2018-07-25T02:35:43.069Z,63.88
2018-07-25T02:38:12.932Z,63.33
2018-07-25T02:40:42.748Z,63.78
2018-07-25T02:43:12.583Z,64.16
2018-07-25T02:45:46.604Z,63.92
2018-07-25T02:48:16.890Z,63.56
2018-07-25T02:50:46.756Z,63.09
2018-07-25T02:53:16.592Z,63.01
2018-07-25T02:55:46.383Z,63.50
2018-07-25T02:58:16.264Z,62.68
2018-07-25T03:00:46.196Z,62.96
2018-07-25T03:03:16.031Z,62.61
2018-07-25T03:05:45.865Z,63.28
2018-07-25T03:08:15.692Z,63.55
2018-07-25T03:10:59.755Z,63.53
2018-07-25T03:13:29.551Z,62.95
2018-07-25T03:16:05.143Z,62.91
2018-07-25T03:18:34.996Z,62.99
2018-07-25T03:21:04.954Z,63.69
2018-07-25T03:23:35.588Z,63.29
2018-07-25T03:26:05.431Z,63.44
2018-07-25T03:28:35.284Z,63.40
2018-07-25T03:31:05.043Z,63.19
2018-07-25T03:33:34.887Z,62.60
2018-07-25T03:36:04.736Z,62.28
2018-07-25T03:38:34.551Z,62.40
2018-07-25T03:41:04.327Z,62.47
2018-07-25T03:43:34.148Z,62.96
2018-07-25T03:46:03.975Z,62.13
2018-07-25T03:48:33.750Z,62.47
2018-07-25T03:51:03.547Z,62.72
2018-07-25T03:53:33.383Z,62.30
2018-07-25T03:56:03.177Z,62.21
2018-07-25T03:58:33.032Z,62.14
2018-07-25T04:01:02.867Z,61.96
2018-07-25T04:03:32.741Z,61.34
2018-07-25T04:06:02.620Z,61.68
2018-07-25T04:08:32.479Z,61.58
2018-07-25T04:11:03.584Z,61.12
2018-07-25T04:13:33.353Z,60.66
2018-07-25T04:16:03.188Z,60.16
2018-07-25T04:18:33.060Z,60.24
2018-07-25T04:21:02.892Z,60.09
2018-07-25T04:23:32.689Z,59.02
2018-07-25T04:26:02.544Z,59.49
2018-07-25T04:28:32.397Z,59.52
2018-07-25T04:31:02.239Z,58.51
2018-07-25T04:33:32.104Z,59.42
2018-07-25T04:36:01.887Z,59.00
2018-07-25T04:38:31.784Z,58.35
2018-07-25T04:41:01.592Z,58.66
2018-07-25T04:43:31.416Z,58.62
2018-07-25T04:46:01.273Z,58.18
2018-07-25T04:48:31.151Z,58.54
2018-07-25T04:51:01.008Z,58.11
2018-07-25T04:53:31.444Z,57.80
2018-07-25T04:56:01.324Z,58.19
2018-07-25T04:58:31.237Z,57.18
2018-07-25T05:01:01.128Z,57.60
2018-07-25T05:03:31.016Z,57.70
2018-07-25T05:06:00.759Z,56.91
2018-07-25T05:08:30.596Z,57.03
2018-07-25T05:11:00.485Z,56.80
2018-07-25T05:13:30.254Z,56.52
2018-07-25T05:16:00.088Z,56.47
2018-07-25T05:18:29.935Z,56.65
2018-07-25T05:20:59.739Z,56.70
2018-07-25T05:23:29.605Z,56.50
2018-07-25T05:25:59.364Z,56.04
2018-07-25T05:28:29.258Z,54.95
2018-07-25T05:30:59.146Z,55.16
2018-07-25T05:33:28.940Z,55.16
2018-07-25T05:35:58.906Z,55.18
2018-07-25T05:38:28.820Z,55.08
2018-07-25T05:40:58.723Z,54.53
2018-07-25T05:43:28.647Z,54.66
2018-07-25T05:45:58.448Z,55.46
2018-07-25T05:48:28.366Z,55.05
2018-07-25T05:50:58.184Z,55.21
2018-07-25T05:53:28.039Z,55.49
2018-07-25T05:55:58.022Z,55.13
2018-07-25T05:58:27.929Z,55.10
2018-07-25T06:00:57.859Z,55.14
2018-07-25T06:03:27.737Z,54.93
2018-07-25T06:05:57.670Z,55.23
2018-07-25T06:08:27.597Z,55.40
2018-07-25T06:10:57.564Z,55.18
2018-07-25T06:13:27.449Z,54.82
2018-07-25T06:15:57.337Z,54.92
2018-07-25T06:18:27.343Z,53.85
2018-07-25T06:20:57.296Z,53.31
2018-07-25T06:23:27.056Z,52.88
2018-07-25T06:25:57.342Z,53.37
2018-07-25T06:28:27.697Z,52.88
2018-07-25T06:30:58.100Z,53.15
2018-07-25T06:33:28.397Z,52.68
2018-07-25T06:35:58.302Z,52.29
2018-07-25T06:38:28.359Z,52.09
2018-07-25T06:40:58.518Z,52.09
2018-07-25T06:43:28.595Z,52.35
2018-07-25T06:45:58.799Z,52.10
2018-07-25T06:48:29.554Z,50.80
2018-07-25T06:50:59.635Z,51.12
2018-07-25T06:53:29.572Z,50.80
2018-07-25T06:55:59.590Z,50.79
2018-07-25T06:58:29.383Z,51.01
2018-07-25T07:01:00.712Z,50.55
2018-07-25T07:03:31.681Z,50.61
2018-07-25T07:06:01.470Z,49.96
2018-07-25T07:08:31.946Z,50.57
2018-07-25T07:11:02.219Z,50.95
2018-07-25T07:13:32.049Z,50.77
2018-07-25T07:16:01.943Z,50.73
2018-07-25T07:18:31.912Z,49.78
2018-07-25T07:21:01.780Z,50.15
2018-07-25T07:23:31.711Z,50.50
2018-07-25T07:26:01.588Z,49.50
2018-07-25T07:28:31.429Z,49.23
2018-07-25T07:31:01.344Z,49.06
2018-07-25T07:33:31.930Z,48.76
2018-07-25T07:36:01.793Z,49.59
2018-07-25T07:38:32.458Z,49.26
2018-07-25T07:41:02.333Z,49.14
2018-07-25T07:43:32.276Z,48.93
2018-07-25T07:46:06.337Z,47.43
2018-07-25T07:48:36.638Z,48.34
2018-07-25T07:51:06.615Z,47.50
2018-07-25T07:53:36.692Z,48.06
2018-07-25T07:56:06.516Z,48.36
2018-07-25T07:58:36.530Z,47.04
2018-07-25T08:01:06.400Z,48.37
2018-07-25T08:03:36.213Z,48.02
2018-07-25T08:06:07.501Z,47.86
2018-07-25T08:08:37.350Z,49.22
2018-07-25T08:11:07.247Z,47.97
2018-07-25T08:13:37.131Z,48.29
2018-07-25T08:16:06.931Z,47.92
2018-07-25T08:18:36.791Z,48.64
2018-07-25T08:21:06.987Z,47.56
2018-07-25T08:23:36.899Z,46.29
2018-07-25T08:26:06.816Z,47.60
2018-07-25T08:28:36.697Z,47.88
2018-07-25T08:31:07.079Z,48.58
2018-07-25T08:33:36.971Z,48.19
2018-07-25T08:36:06.728Z,48.63
2018-07-25T08:38:38.330Z,48.98
2018-07-25T08:41:08.296Z,49.06
2018-07-25T08:43:39.295Z,49.35
2018-07-25T08:46:10.254Z,48.68
2018-07-25T08:48:40.344Z,49.30
2018-07-25T08:51:10.061Z,49.29
2018-07-25T08:53:39.931Z,49.59
2018-07-25T08:56:09.832Z,49.74
2018-07-25T08:58:39.667Z,49.33
2018-07-25T09:01:09.492Z,48.92
2018-07-25T09:03:39.335Z,49.43
2018-07-25T09:06:09.125Z,48.74
2018-07-25T09:08:38.940Z,48.43
2018-07-25T09:11:08.896Z,48.79
2018-07-25T09:13:38.701Z,48.39
2018-07-25T09:16:08.546Z,48.30
2018-07-25T09:18:38.319Z,49.20
2018-07-25T09:21:08.170Z,49.50
2018-07-25T09:23:37.943Z,48.67
2018-07-25T09:26:07.754Z,48.79
2018-07-25T09:28:37.580Z,48.54
2018-07-25T09:31:07.547Z,48.92
2018-07-25T09:33:37.422Z,48.68
2018-07-25T09:36:07.208Z,48.26
2018-07-25T09:38:37.011Z,47.03
2018-07-25T09:41:06.859Z,47.47
2018-07-25T09:43:36.617Z,45.71
2018-07-25T09:46:06.480Z,46.96
2018-07-25T09:48:36.404Z,45.74
2018-07-25T09:51:06.304Z,44.09
2018-07-25T09:53:36.089Z,44.90
2018-07-25T09:56:05.945Z,45.75
2018-07-25T09:58:35.852Z,43.21
2018-07-25T10:01:05.865Z,43.86
2018-07-25T10:03:35.526Z,44.01
2018-07-25T10:06:05.393Z,43.43
2018-07-25T10:08:35.252Z,42.70
2018-07-25T10:11:05.266Z,41.96
2018-07-25T10:13:35.095Z,42.60
2018-07-25T10:16:04.954Z,42.48
2018-07-25T10:18:34.727Z,42.16
2018-07-25T10:21:04.616Z,41.51
2018-07-25T10:23:34.539Z,40.86
2018-07-25T10:26:04.474Z,40.56
2018-07-25T10:28:34.362Z,40.26
2018-07-25T10:31:04.100Z,38.86
2018-07-25T10:33:33.871Z,39.45
2018-07-25T10:36:03.848Z,39.04
2018-07-25T10:38:33.607Z,37.94
2018-07-25T10:41:03.363Z,38.59
2018-07-25T10:43:33.345Z,39.03
2018-07-25T10:46:03.124Z,39.10
2018-07-25T10:48:32.859Z,38.63
2018-07-25T10:51:02.665Z,37.87
2018-07-25T10:53:32.423Z,38.13
2018-07-25T10:56:02.471Z,39.03
2018-07-25T10:58:32.143Z,38.50
2018-07-25T11:01:02.020Z,37.74
2018-07-25T11:03:31.887Z,38.03
2018-07-25T11:06:01.712Z,38.06
2018-07-25T11:08:31.494Z,40.63
2018-07-25T11:11:01.367Z,44.40
2018-07-25T11:13:31.200Z,45.48
2018-07-25T11:16:00.987Z,45.66
2018-07-25T11:18:30.796Z,46.37
2018-07-25T11:21:00.697Z,46.37
2018-07-25T11:23:30.655Z,47.01
2018-07-25T11:26:00.604Z,47.06
2018-07-25T11:28:30.504Z,46.70
2018-07-25T11:31:00.367Z,47.63
2018-07-25T11:33:30.236Z,47.03
2018-07-25T11:36:00.156Z,45.57
2018-07-25T11:38:30.051Z,45.76
2018-07-25T11:40:59.863Z,44.99
2018-07-25T11:43:29.811Z,44.50
2018-07-25T11:45:59.688Z,42.61
2018-07-25T11:48:29.495Z,41.58
2018-07-25T11:50:59.622Z,41.59
2018-07-25T11:53:29.541Z,40.79
2018-07-25T11:55:59.415Z,40.44
2018-07-25T11:58:29.205Z,39.57
2018-07-25T12:03:19.132Z,37.63
2018-07-25T12:05:49.071Z,35.68
2018-07-25T12:08:18.877Z,36.15
2018-07-25T12:10:48.765Z,36.85
2018-07-25T12:13:18.618Z,38.00
2018-07-25T12:15:48.424Z,39.46
2018-07-25T12:18:18.239Z,39.28
2018-07-25T12:20:47.998Z,38.04
2018-07-25T12:23:17.847Z,39.36
2018-07-25T12:25:47.644Z,39.82
2018-07-25T12:28:17.507Z,39.92
2018-07-25T12:30:47.288Z,39.71
2018-07-25T12:33:17.340Z,39.81
2018-07-25T12:35:47.109Z,38.54
2018-07-25T12:38:17.837Z,38.92
2018-07-25T12:40:47.615Z,39.43
2018-07-25T12:43:17.453Z,40.44
2018-07-25T12:45:47.206Z,38.87
2018-07-25T12:48:17.173Z,39.66
2018-07-25T12:50:46.984Z,39.48
2018-07-25T12:53:16.804Z,39.67
2018-07-25T12:55:46.512Z,40.13
2018-07-25T12:58:16.422Z,40.16
2018-07-25T13:00:46.186Z,40.73
2018-07-25T13:03:16.125Z,41.27
2018-07-25T13:05:45.961Z,41.08
2018-07-25T13:08:15.852Z,40.84
2018-07-25T13:10:45.717Z,39.50
2018-07-25T13:13:15.596Z,40.16
2018-07-25T13:15:45.444Z,39.59
2018-07-25T13:18:15.346Z,37.42
2018-07-25T13:20:45.187Z,38.02
2018-07-25T13:23:15.084Z,38.83
2018-07-25T13:25:44.916Z,38.49
2018-07-25T13:28:14.924Z,37.89
2018-07-25T13:30:44.735Z,38.89
2018-07-25T13:33:14.891Z,39.51
2018-07-25T13:35:44.778Z,40.16
2018-07-25T13:38:14.699Z,40.29
2018-07-25T13:40:44.481Z,40.92
2018-07-25T13:43:14.413Z,40.87
2018-07-25T13:45:44.291Z,41.30
2018-07-25T13:48:14.075Z,41.52
2018-07-25T13:50:44.356Z,42.58
2018-07-25T13:53:14.376Z,42.94
2018-07-25T13:55:44.251Z,42.87
2018-07-25T13:58:14.131Z,43.03
2018-07-25T14:00:44.049Z,43.26
2018-07-25T14:03:13.907Z,42.72
2018-07-25T14:05:43.830Z,42.29
2018-07-25T14:08:13.795Z,42.16
2018-07-25T14:10:43.556Z,41.80
2018-07-25T14:13:13.419Z,41.63
2018-07-25T14:15:43.302Z,41.59
2018-07-25T14:18:13.568Z,41.81
2018-07-25T14:20:43.308Z,41.30
2018-07-25T14:23:13.178Z,41.26
2018-07-25T14:25:42.977Z,41.21
2018-07-25T14:28:13.258Z,41.57
2018-07-25T14:30:43.376Z,40.16
2018-07-25T14:33:13.673Z,40.85
2018-07-25T14:35:43.472Z,41.24
2018-07-25T14:38:13.291Z,41.09
2018-07-25T14:40:43.184Z,41.15
2018-07-25T14:43:12.995Z,41.97
2018-07-25T14:45:42.823Z,41.18
2018-07-25T14:48:12.700Z,41.29
2018-07-25T14:50:42.477Z,40.56
2018-07-25T14:53:12.367Z,40.00
2018-07-25T14:55:42.139Z,39.71
2018-07-25T14:58:12.421Z,40.68
2018-07-25T15:00:42.175Z,41.43
2018-07-25T15:03:11.951Z,41.71
2018-07-25T15:05:41.771Z,41.59
2018-07-25T15:08:11.636Z,40.64
2018-07-25T15:10:41.458Z,39.91
2018-07-25T15:13:11.295Z,40.32
2018-07-25T15:15:41.094Z,40.85
2018-07-25T15:18:10.940Z,40.69
2018-07-25T15:20:40.736Z,40.96
2018-07-25T15:23:10.599Z,41.40
2018-07-25T15:25:40.363Z,41.46
2018-07-25T15:28:10.185Z,41.45
2018-07-25T15:30:40.115Z,41.90
2018-07-25T15:33:09.920Z,42.69
2018-07-25T15:35:39.799Z,42.65
2018-07-25T15:38:09.619Z,42.63
2018-07-25T15:40:39.361Z,42.27
2018-07-25T15:43:09.268Z,41.99
2018-07-25T15:45:39.179Z,42.21
2018-07-25T15:48:08.960Z,42.13
2018-07-25T15:50:38.731Z,42.31
2018-07-25T15:53:08.632Z,42.34
2018-07-25T15:55:38.508Z,41.84
2018-07-25T15:58:08.327Z,41.67
2018-07-25T16:00:38.143Z,41.16
2018-07-25T16:03:07.978Z,41.44
2018-07-25T16:05:37.935Z,42.09
2018-07-25T16:08:07.719Z,42.34
2018-07-25T16:10:37.574Z,40.57
2018-07-25T16:13:07.562Z,41.99
2018-07-25T16:15:37.315Z,42.49
2018-07-25T16:18:07.256Z,43.07
2018-07-25T16:20:37.075Z,42.67
2018-07-25T16:23:06.930Z,42.55
2018-07-25T16:25:36.779Z,43.92
2018-07-25T16:28:06.815Z,44.45
2018-07-25T16:30:36.728Z,44.34
2018-07-25T16:33:06.549Z,43.49
2018-07-25T16:35:36.308Z,43.62
2018-07-25T16:38:06.384Z,43.09
2018-07-25T16:40:36.204Z,43.39
2018-07-25T16:43:06.151Z,43.47
2018-07-25T16:45:36.117Z,43.75
2018-07-25T16:48:06.109Z,43.70
2018-07-25T16:50:35.970Z,44.20
2018-07-25T16:53:05.771Z,43.64
2018-07-25T16:55:35.569Z,44.42
2018-07-25T16:58:05.583Z,44.52
2018-07-25T17:00:35.362Z,45.43
2018-07-25T17:03:05.691Z,45.89
2018-07-25T17:05:35.494Z,45.96
2018-07-25T17:08:05.300Z,44.91
2018-07-25T17:10:35.127Z,44.97
2018-07-25T17:13:05.008Z,46.50
2018-07-25T17:15:34.823Z,47.20
2018-07-25T17:18:04.626Z,47.76
2018-07-25T17:20:34.452Z,47.56
2018-07-25T17:23:04.195Z,47.84
2018-07-25T17:25:34.103Z,48.05
2018-07-25T17:28:03.899Z,48.01
2018-07-25T17:30:33.654Z,48.89
2018-07-25T17:33:03.528Z,48.27
2018-07-25T17:35:33.328Z,48.75
2018-07-25T17:38:03.180Z,48.73
2018-07-25T17:40:33.047Z,49.00
2018-07-25T17:43:02.897Z,49.18
2018-07-25T17:45:32.620Z,49.41
2018-07-25T17:48:02.531Z,50.04
2018-07-25T17:50:32.355Z,50.02
2018-07-25T17:53:02.097Z,50.57
2018-07-25T17:55:32.152Z,51.30
2018-07-25T17:58:02.179Z,51.32
2018-07-25T18:00:32.039Z,50.43
2018-07-25T18:03:01.837Z,50.17
2018-07-25T18:05:31.637Z,49.62
2018-07-25T18:08:01.378Z,50.65
2018-07-25T18:10:31.164Z,49.56
2018-07-25T18:13:06.023Z,49.14
2018-07-25T18:15:35.839Z,48.61
2018-07-25T18:18:05.599Z,48.45
2018-07-25T18:20:35.432Z,48.14
2018-07-25T18:23:05.228Z,47.53
2018-07-25T18:25:35.141Z,47.93
2018-07-25T18:28:05.099Z,48.67
2018-07-25T18:30:35.011Z,48.44
2018-07-25T18:33:04.747Z,48.88
2018-07-25T18:35:34.567Z,49.16
2018-07-25T18:38:04.359Z,49.59
2018-07-25T18:40:34.191Z,50.34
2018-07-25T18:43:03.982Z,51.20
2018-07-25T18:45:33.760Z,51.89
2018-07-25T18:48:03.486Z,52.19
2018-07-25T18:50:33.293Z,52.12
2018-07-25T18:53:03.176Z,52.85
2018-07-25T18:55:32.891Z,53.46
2018-07-25T18:58:02.702Z,53.06
2018-07-25T19:00:32.451Z,54.39
2018-07-25T19:03:02.331Z,54.48
2018-07-25T19:05:32.423Z,55.12
2018-07-25T19:08:02.831Z,55.09
2018-07-25T19:10:32.647Z,55.53
2018-07-25T19:13:02.669Z,57.17
2018-07-25T19:15:33.535Z,59.48
2018-07-25T19:18:03.287Z,61.26
2018-07-25T19:20:33.088Z,63.73
2018-07-25T19:23:02.789Z,64.48
2018-07-25T19:25:32.544Z,63.89
2018-07-25T19:28:02.308Z,65.86
2018-07-25T19:30:32.084Z,65.17
2018-07-25T19:33:01.831Z,67.79
2018-07-25T19:35:31.583Z,68.28
2018-07-25T19:38:01.391Z,69.73
2018-07-25T19:40:31.189Z,69.01
2018-07-25T19:43:00.975Z,69.09
2018-07-25T19:45:30.855Z,69.25
2018-07-25T19:48:00.649Z,67.73
2018-07-25T19:50:30.476Z,69.25
2018-07-25T19:53:00.228Z,69.45
2018-07-25T19:55:30.009Z,70.03
2018-07-25T19:57:59.742Z,70.56
2018-07-25T20:00:29.550Z,70.56
2018-07-25T20:02:59.233Z,71.99
2018-07-25T20:05:28.985Z,71.91
2018-07-25T20:07:58.723Z,72.11
2018-07-25T20:10:28.612Z,70.92
2018-07-25T20:12:58.401Z,67.55
2018-07-25T20:15:33.353Z,65.73
2018-07-25T20:18:03.271Z,65.36
2018-07-25T20:20:32.962Z,65.31
2018-07-25T20:23:02.714Z,63.79
2018-07-25T20:25:32.467Z,64.76
2018-07-25T20:28:02.211Z,65.00
2018-07-25T20:30:31.999Z,64.82
2018-07-25T20:33:01.778Z,63.68
2018-07-25T20:35:31.588Z,63.58
2018-07-25T20:38:01.400Z,62.83
2018-07-25T20:40:31.228Z,63.04
2018-07-25T20:43:01.068Z,63.22
2018-07-25T20:45:30.856Z,62.90
2018-07-25T20:48:00.603Z,62.75
2018-07-25T20:50:30.303Z,62.82
2018-07-25T20:53:00.105Z,63.46
2018-07-25T20:55:29.800Z,63.72
2018-07-25T20:57:59.590Z,63.40
2018-07-25T21:00:34.644Z,63.70
2018-07-25T21:03:06.356Z,63.77
2018-07-25T21:05:36.305Z,63.83
2018-07-25T21:08:06.147Z,64.15
2018-07-25T21:10:35.916Z,69.02
2018-07-25T21:13:05.664Z,68.86
2018-07-25T21:15:35.480Z,68.67
2018-07-25T21:18:05.464Z,69.14
2018-07-25T21:20:35.240Z,70.04
2018-07-25T21:23:05.003Z,70.80
2018-07-25T21:25:34.755Z,69.79
2018-07-25T21:28:04.584Z,68.93
2018-07-25T21:30:34.423Z,66.51
2018-07-25T21:33:04.142Z,65.51
2018-07-25T21:35:33.890Z,68.22
2018-07-25T21:38:03.695Z,68.35
2018-07-25T21:40:33.496Z,65.74
2018-07-25T21:43:03.267Z,66.08
2018-07-25T21:45:33.055Z,66.85
2018-07-25T21:48:02.795Z,67.76
2018-07-25T21:50:32.542Z,67.24
2018-07-25T21:53:02.336Z,68.46
2018-07-25T21:55:32.124Z,65.25
2018-07-25T21:58:01.901Z,64.05
2018-07-25T22:00:31.688Z,63.97
2018-07-25T22:03:01.508Z,63.79
2018-07-25T22:05:31.228Z,63.97
2018-07-25T22:08:00.972Z,63.40
2018-07-25T22:10:30.675Z,63.01
2018-07-25T22:13:00.496Z,64.33
2018-07-25T22:15:30.256Z,63.92
2018-07-25T22:17:59.999Z,63.88
2018-07-25T22:20:29.847Z,64.43
2018-07-25T22:22:59.624Z,65.24
2018-07-25T22:25:29.367Z,64.28
2018-07-25T22:27:59.084Z,63.77
2018-07-25T22:30:28.909Z,64.36
2018-07-25T22:32:58.566Z,64.55
2018-07-25T22:35:28.332Z,63.11
2018-07-25T22:37:58.151Z,62.89
2018-07-25T22:40:27.927Z,62.61
2018-07-25T22:42:57.631Z,62.79
2018-07-25T22:45:27.374Z,62.69
2018-07-25T22:47:57.138Z,62.94
2018-07-25T22:50:27.006Z,63.40
2018-07-25T22:52:56.739Z,63.02
2018-07-25T22:55:26.551Z,63.45
2018-07-25T22:57:56.250Z,62.76
2018-07-25T23:00:26.079Z,63.01
2018-07-25T23:02:55.783Z,62.91
2018-07-25T23:05:25.531Z,62.87
2018-07-25T23:07:55.281Z,62.37
2018-07-25T23:10:25.032Z,61.95
2018-07-25T23:12:54.923Z,61.80
2018-07-25T23:15:24.643Z,61.78
2018-07-25T23:17:54.445Z,62.24
2018-07-25T23:20:24.183Z,61.68
2018-07-25T23:23:01.052Z,61.99
2018-07-25T23:25:30.919Z,61.65
2018-07-25T23:28:01.018Z,61.40
2018-07-25T23:30:30.727Z,61.63
2018-07-25T23:33:00.549Z,62.03
2018-07-25T23:35:30.264Z,61.95
2018-07-25T23:37:59.987Z,62.15
2018-07-25T23:40:29.790Z,62.01
2018-07-25T23:42:59.512Z,61.61
2018-07-25T23:45:29.275Z,62.27
2018-07-25T23:47:58.996Z,61.77
2018-07-25T23:50:28.780Z,62.24
2018-07-25T23:52:58.490Z,62.69
2018-07-25T23:55:28.218Z,62.85
2018-07-25T23:57:57.939Z,62.58
